createdAt,value
2023-03-05T00:00:38.421Z,0.00
2023-03-05T00:01:38.385Z,0.00
2023-03-05T00:02:38.418Z,0.00
2023-03-05T00:03:38.369Z,0.00
2023-03-05T00:04:38.374Z,0.00
2023-03-05T00:05:38.348Z,0.00
2023-03-05T00:06:38.311Z,0.00
2023-03-05T00:07:38.315Z,0.00
2023-03-05T00:08:38.320Z,0.00
2023-03-05T00:09:38.317Z,0.00
2023-03-05T00:10:38.277Z,0.00
2023-03-05T00:11:38.282Z,0.00
2023-03-05T00:12:38.248Z,0.00
2023-03-05T00:13:38.238Z,0.00
2023-03-05T00:14:38.258Z,0.00
2023-03-05T00:15:38.297Z,0.00
2023-03-05T00:16:38.211Z,0.00
2023-03-05T00:17:38.247Z,0.00
2023-03-05T00:18:38.230Z,0.00
2023-03-05T00:19:38.191Z,0.00
2023-03-05T00:20:38.201Z,0.00
2023-03-05T00:21:38.194Z,0.00
2023-03-05T00:22:38.177Z,0.00
2023-03-05T00:23:38.157Z,0.00
2023-03-05T00:24:38.257Z,0.00
2023-03-05T00:25:38.111Z,0.00
2023-03-05T00:26:38.133Z,0.00
2023-03-05T00:27:38.085Z,0.00
2023-03-05T00:28:38.135Z,0.00
2023-03-05T00:29:38.101Z,0.00
2023-03-05T00:30:38.065Z,0.00
2023-03-05T00:31:38.232Z,0.00
2023-03-05T00:32:38.195Z,0.00
2023-03-05T00:33:38.072Z,0.00
2023-03-05T00:34:38.031Z,0.00
2023-03-05T00:35:38.387Z,0.00
2023-03-05T00:36:38.041Z,0.00
2023-03-05T00:37:38.047Z,0.00
2023-03-05T00:38:38.064Z,0.00
2023-03-05T00:39:38.018Z,0.00
2023-03-05T00:40:38.109Z,0.00
2023-03-05T00:41:38.021Z,0.00
2023-03-05T00:42:37.960Z,0.00
2023-03-05T00:43:38.146Z,0.00
2023-03-05T00:44:37.964Z,0.00
2023-03-05T00:45:37.927Z,0.00
2023-03-05T00:46:37.981Z,0.00
2023-03-05T00:47:37.912Z,0.00
2023-03-05T00:48:37.931Z,0.00
2023-03-05T00:49:37.907Z,0.00
2023-03-05T00:50:37.893Z,0.00
2023-03-05T00:51:37.866Z,0.00
2023-03-05T00:52:37.878Z,0.00
2023-03-05T00:53:37.853Z,0.00
2023-03-05T00:54:37.861Z,0.00
2023-03-05T00:55:37.840Z,0.00
2023-03-05T00:56:37.818Z,0.00
2023-03-05T00:57:37.804Z,0.00
2023-03-05T00:58:37.791Z,0.00
2023-03-05T00:59:37.798Z,0.00
2023-03-05T01:00:37.808Z,0.00
2023-03-05T01:01:37.845Z,0.00
2023-03-05T01:02:37.787Z,0.00
2023-03-05T01:03:37.731Z,0.00
2023-03-05T01:04:37.756Z,0.00
2023-03-05T01:05:38.335Z,0.00
2023-03-05T01:06:37.733Z,0.00
2023-03-05T01:07:37.731Z,0.00
2023-03-05T01:08:37.709Z,0.00
2023-03-05T01:09:37.748Z,0.00
2023-03-05T01:10:37.654Z,0.00
2023-03-05T01:11:37.666Z,0.00
2023-03-05T01:12:37.664Z,0.00
2023-03-05T01:13:38.343Z,0.00
2023-03-05T01:14:37.650Z,0.00
2023-03-05T01:15:37.614Z,0.00
2023-03-05T01:16:37.586Z,0.00
2023-03-05T01:17:37.595Z,0.00
2023-03-05T01:18:37.594Z,0.00
2023-03-05T01:19:37.605Z,0.00
2023-03-05T01:20:37.551Z,0.00
2023-03-05T01:21:37.570Z,0.00
2023-03-05T01:22:37.519Z,0.00
2023-03-05T01:23:37.629Z,0.00
2023-03-05T01:24:37.529Z,0.00
2023-03-05T01:25:37.521Z,0.00
2023-03-05T01:26:37.502Z,0.00
2023-03-05T01:27:37.476Z,0.00
2023-03-05T01:28:37.479Z,0.00
2023-03-05T01:29:37.507Z,0.00
2023-03-05T01:30:37.508Z,0.00
2023-03-05T01:31:37.524Z,0.00
2023-03-05T01:32:37.502Z,0.00
2023-03-05T01:33:37.492Z,0.00
2023-03-05T01:34:37.401Z,0.00
2023-03-05T01:35:37.481Z,0.00
2023-03-05T01:36:37.419Z,0.00
2023-03-05T01:37:37.367Z,0.00
2023-03-05T01:38:37.399Z,0.00
2023-03-05T01:39:37.380Z,0.00
2023-03-05T01:40:37.452Z,0.00
2023-03-05T01:41:37.435Z,0.00
2023-03-05T01:42:37.345Z,0.00
2023-03-05T01:43:37.319Z,0.00
2023-03-05T01:44:37.371Z,0.00
2023-03-05T01:45:37.532Z,0.00
2023-03-05T01:46:37.374Z,0.00
2023-03-05T01:47:37.290Z,0.00
2023-03-05T01:48:37.265Z,0.00
2023-03-05T01:49:37.309Z,0.00
2023-03-05T01:50:37.280Z,0.00
2023-03-05T01:51:37.269Z,0.00
2023-03-05T01:52:37.253Z,0.00
2023-03-05T01:53:37.220Z,0.00
2023-03-05T01:54:37.197Z,0.00
2023-03-05T01:55:37.209Z,0.00
2023-03-05T01:56:37.222Z,0.00
2023-03-05T01:57:37.203Z,0.00
2023-03-05T01:58:37.159Z,0.00
2023-03-05T01:59:37.181Z,0.00
2023-03-05T02:00:37.152Z,0.00
2023-03-05T02:01:37.132Z,0.00
2023-03-05T02:02:37.168Z,0.00
2023-03-05T02:03:37.201Z,0.00
2023-03-05T02:04:37.101Z,0.00
2023-03-05T02:05:37.101Z,0.00
2023-03-05T02:06:37.073Z,0.00
2023-03-05T02:07:37.121Z,0.00
2023-03-05T02:08:37.078Z,0.00
2023-03-05T02:09:37.081Z,0.00
2023-03-05T02:10:37.113Z,0.00
2023-03-05T02:11:37.061Z,0.00
2023-03-05T02:12:37.103Z,0.00
2023-03-05T02:13:37.024Z,0.00
2023-03-05T02:14:37.017Z,0.00
2023-03-05T02:15:37.082Z,0.00
2023-03-05T02:16:37.132Z,0.00
2023-03-05T02:17:37.011Z,0.00
2023-03-05T02:18:36.985Z,0.00
2023-03-05T02:19:36.957Z,0.00
2023-03-05T02:20:36.955Z,0.00
2023-03-05T02:21:36.968Z,0.00
2023-03-05T02:22:37.023Z,0.00
2023-03-05T02:23:36.989Z,0.00
2023-03-05T02:24:36.900Z,0.00
2023-03-05T02:25:37.060Z,0.00
2023-03-05T02:26:36.943Z,0.00
2023-03-05T02:27:36.954Z,0.00
2023-03-05T02:28:36.888Z,0.00
2023-03-05T02:29:36.888Z,0.00
2023-03-05T02:30:36.845Z,0.00
2023-03-05T02:31:36.884Z,0.00
2023-03-05T02:32:36.966Z,0.00
2023-03-05T02:33:36.853Z,0.00
2023-03-05T02:34:36.810Z,0.00
2023-03-05T02:35:36.876Z,0.00
2023-03-05T02:36:36.806Z,0.00
2023-03-05T02:37:36.851Z,0.00
2023-03-05T02:38:36.776Z,0.00
2023-03-05T02:39:36.775Z,0.00
2023-03-05T02:40:36.785Z,0.00
2023-03-05T02:41:36.752Z,0.00
2023-03-05T02:42:36.769Z,0.00
2023-03-05T02:43:36.747Z,0.00
2023-03-05T02:44:36.745Z,0.00
2023-03-05T02:45:36.753Z,0.00
2023-03-05T02:46:36.718Z,0.00
2023-03-05T02:47:36.796Z,0.00
2023-03-05T02:48:36.689Z,0.00
2023-03-05T02:49:36.685Z,0.00
2023-03-05T02:50:36.756Z,0.00
2023-03-05T02:51:36.658Z,0.00
2023-03-05T02:52:36.670Z,0.00
2023-03-05T02:53:36.630Z,0.00
2023-03-05T02:54:36.617Z,0.00
2023-03-05T02:55:36.655Z,0.00
2023-03-05T02:56:36.686Z,0.00
2023-03-05T02:57:36.587Z,0.00
2023-03-05T02:58:36.578Z,0.00
2023-03-05T02:59:36.589Z,0.00
2023-03-05T03:00:36.583Z,0.00
2023-03-05T03:01:36.678Z,0.00
2023-03-05T03:02:36.529Z,0.00
2023-03-05T03:03:36.610Z,0.00
2023-03-05T03:04:37.539Z,0.00
2023-03-05T03:05:36.549Z,0.00
2023-03-05T03:06:36.512Z,0.00
2023-03-05T03:07:36.484Z,0.00
2023-03-05T03:08:36.501Z,0.00
2023-03-05T03:09:36.469Z,0.00
2023-03-05T03:10:36.482Z,0.00
2023-03-05T03:11:36.497Z,0.00
2023-03-05T03:12:36.456Z,0.00
2023-03-05T03:13:36.424Z,0.00
2023-03-05T03:14:36.410Z,0.00
2023-03-05T03:15:36.418Z,0.00
2023-03-05T03:16:36.554Z,0.00
2023-03-05T03:17:36.406Z,0.00
2023-03-05T03:18:36.434Z,0.00
2023-03-05T03:19:36.381Z,0.00
2023-03-05T03:20:36.354Z,0.00
2023-03-05T03:21:36.374Z,0.00
2023-03-05T03:22:36.350Z,0.00
2023-03-05T03:23:36.333Z,0.00
2023-03-05T03:24:37.237Z,0.00
2023-03-05T03:25:36.319Z,0.00
2023-03-05T03:26:36.387Z,0.00
2023-03-05T03:27:36.316Z,0.00
2023-03-05T03:28:36.284Z,0.00
2023-03-05T03:29:36.333Z,0.00
2023-03-05T03:30:36.348Z,0.00
2023-03-05T03:31:36.315Z,0.00
2023-03-05T03:32:36.306Z,0.00
2023-03-05T03:33:36.254Z,0.00
2023-03-05T03:34:36.270Z,0.00
2023-03-05T03:35:36.246Z,0.00
2023-03-05T03:36:36.223Z,0.00
2023-03-05T03:37:36.245Z,0.00
2023-03-05T03:38:36.266Z,0.00
2023-03-05T03:39:36.189Z,0.00
2023-03-05T03:40:36.172Z,0.00
2023-03-05T03:41:36.162Z,0.00
2023-03-05T03:42:36.154Z,0.00
2023-03-05T03:43:36.162Z,0.00
2023-03-05T03:44:36.200Z,0.00
2023-03-05T03:45:36.134Z,0.00
2023-03-05T03:46:36.173Z,0.00
2023-03-05T03:47:36.099Z,0.00
2023-03-05T03:48:36.157Z,0.00
2023-03-05T03:49:36.131Z,0.00
2023-03-05T03:50:36.076Z,0.00
2023-03-05T03:51:36.075Z,0.00
2023-03-05T03:52:36.043Z,0.00
2023-03-05T03:53:36.058Z,0.00
2023-03-05T03:54:36.019Z,1.00
2023-03-05T03:55:36.022Z,0.00
2023-03-05T03:56:36.063Z,0.00
2023-03-05T03:57:36.021Z,0.00
2023-03-05T03:58:35.983Z,0.00
2023-03-05T03:59:35.995Z,0.00
2023-03-05T04:00:35.966Z,0.00
2023-03-05T04:01:36.017Z,0.00
2023-03-05T04:02:36.109Z,0.00
2023-03-05T04:03:35.981Z,0.00
2023-03-05T04:04:36.101Z,0.00
2023-03-05T04:05:36.032Z,0.00
2023-03-05T04:06:35.979Z,0.00
2023-03-05T04:07:36.092Z,0.00
2023-03-05T04:08:35.930Z,0.00
2023-03-05T04:09:35.894Z,0.00
2023-03-05T04:10:35.899Z,0.00
2023-03-05T04:11:35.873Z,0.00
2023-03-05T04:12:35.899Z,0.00
2023-03-05T04:13:35.939Z,0.00
2023-03-05T04:14:35.907Z,0.00
2023-03-05T04:15:35.893Z,0.00
2023-03-05T04:16:35.808Z,0.00
2023-03-05T04:17:35.839Z,0.00
2023-03-05T04:18:35.806Z,0.00
2023-03-05T04:19:35.775Z,0.00
2023-03-05T04:20:35.769Z,0.00
2023-03-05T04:21:35.767Z,0.00
2023-03-05T04:22:35.793Z,0.00
2023-03-05T04:23:35.736Z,0.00
2023-03-05T04:24:35.741Z,0.00
2023-03-05T04:25:35.713Z,0.00
2023-03-05T04:26:35.744Z,0.00
2023-03-05T04:27:35.700Z,0.00
2023-03-05T04:28:35.733Z,0.00
2023-03-05T04:29:35.693Z,0.00
2023-03-05T04:30:35.693Z,0.00
2023-03-05T04:31:35.851Z,0.00
2023-03-05T04:32:35.801Z,0.00
2023-03-05T04:33:35.684Z,0.00
2023-03-05T04:34:35.639Z,0.00
2023-03-05T04:35:35.640Z,0.00
2023-03-05T04:36:35.625Z,0.00
2023-03-05T04:37:35.606Z,0.00
2023-03-05T04:38:35.585Z,0.00
2023-03-05T04:39:35.633Z,0.00
2023-03-05T04:40:35.559Z,0.00
2023-03-05T04:41:35.612Z,0.00
2023-03-05T04:42:35.675Z,0.00
2023-03-05T04:43:35.537Z,0.00
2023-03-05T04:44:35.537Z,0.00
2023-03-05T04:45:35.520Z,0.00
2023-03-05T04:46:35.618Z,0.00
2023-03-05T04:47:35.464Z,1.00
2023-03-05T04:48:35.517Z,0.00
2023-03-05T04:49:35.458Z,0.00
2023-03-05T04:50:35.468Z,0.00
2023-03-05T04:51:35.475Z,0.00
2023-03-05T04:52:35.413Z,1.00
2023-03-05T04:53:35.478Z,0.00
2023-03-05T04:54:35.424Z,0.00
2023-03-05T04:55:35.441Z,0.00
2023-03-05T04:56:35.437Z,0.00
2023-03-05T04:57:35.436Z,0.00
2023-03-05T04:58:35.372Z,0.00
2023-03-05T04:59:35.390Z,0.00
2023-03-05T05:00:35.361Z,0.00
2023-03-05T05:01:35.405Z,0.00
2023-03-05T05:02:35.470Z,0.00
2023-03-05T05:03:35.390Z,0.00
2023-03-05T05:04:35.314Z,0.00
2023-03-05T05:05:35.296Z,0.00
2023-03-05T05:06:35.307Z,0.00
2023-03-05T05:07:35.321Z,0.00
2023-03-05T05:08:35.331Z,0.00
2023-03-05T05:09:35.269Z,0.00
2023-03-05T05:10:35.264Z,0.00
2023-03-05T05:11:35.253Z,0.00
2023-03-05T05:12:35.268Z,0.00
2023-03-05T05:13:35.262Z,0.00
2023-03-05T05:14:35.270Z,0.00
2023-03-05T05:15:35.220Z,0.00
2023-03-05T05:16:35.286Z,0.00
2023-03-05T05:17:35.253Z,0.00
2023-03-05T05:18:35.186Z,0.00
2023-03-05T05:19:35.283Z,0.00
2023-03-05T05:20:35.205Z,0.00
2023-03-05T05:21:35.164Z,0.00
2023-03-05T05:22:35.157Z,0.00
2023-03-05T05:23:35.223Z,0.00
2023-03-05T05:24:35.173Z,0.00
2023-03-05T05:25:35.102Z,0.00
2023-03-05T05:26:35.112Z,0.00
2023-03-05T05:27:35.121Z,0.00
2023-03-05T05:28:35.148Z,0.00
2023-03-05T05:29:35.690Z,0.00
2023-03-05T05:30:35.062Z,0.00
2023-03-05T05:31:35.113Z,0.00
2023-03-05T05:32:35.143Z,0.00
2023-03-05T05:33:35.060Z,0.00
2023-03-05T05:34:35.089Z,0.00
2023-03-05T05:35:35.025Z,0.00
2023-03-05T05:36:34.973Z,1.00
2023-03-05T05:37:35.015Z,0.00
2023-03-05T05:38:35.025Z,0.00
2023-03-05T05:39:34.991Z,0.00
2023-03-05T05:40:34.960Z,0.00
2023-03-05T05:41:34.904Z,1.00
2023-03-05T05:42:34.915Z,1.00
2023-03-05T05:43:34.926Z,1.00
2023-03-05T05:44:34.965Z,1.00
2023-03-05T05:45:35.035Z,0.00
2023-03-05T05:46:34.975Z,0.00
2023-03-05T05:47:34.864Z,2.00
2023-03-05T05:48:34.855Z,2.00
2023-03-05T05:49:34.869Z,1.00
2023-03-05T05:50:34.837Z,1.00
2023-03-05T05:51:34.874Z,1.00
2023-03-05T05:52:34.791Z,2.00
2023-03-05T05:53:34.988Z,2.00
2023-03-05T05:54:34.848Z,3.00
2023-03-05T05:55:34.754Z,3.00
2023-03-05T05:56:34.800Z,3.00
2023-03-05T05:57:34.775Z,5.00
2023-03-05T05:58:34.760Z,7.00
2023-03-05T05:59:34.748Z,11.00
2023-03-05T06:00:34.738Z,10.00
2023-03-05T06:01:34.887Z,9.00
2023-03-05T06:02:34.732Z,11.00
2023-03-05T06:03:34.697Z,12.00
2023-03-05T06:04:34.720Z,11.00
2023-03-05T06:05:34.695Z,11.00
2023-03-05T06:06:34.732Z,11.00
2023-03-05T06:07:34.668Z,19.00
2023-03-05T06:08:34.693Z,19.00
2023-03-05T06:09:34.684Z,19.00
2023-03-05T06:10:34.625Z,19.00
2023-03-05T06:11:35.209Z,21.00
2023-03-05T06:12:34.627Z,19.00
2023-03-05T06:13:34.605Z,22.00
2023-03-05T06:14:34.622Z,21.00
2023-03-05T06:15:34.628Z,25.00
2023-03-05T06:16:34.693Z,26.00
2023-03-05T06:17:34.549Z,28.00
2023-03-05T06:18:35.263Z,31.00
2023-03-05T06:19:34.597Z,33.00
2023-03-05T06:20:34.522Z,34.00
2023-03-05T06:21:34.529Z,34.00
2023-03-05T06:22:34.505Z,39.00
2023-03-05T06:23:34.533Z,42.00
2023-03-05T06:24:34.477Z,44.00
2023-03-05T06:25:34.482Z,47.00
2023-03-05T06:26:34.530Z,47.00
2023-03-05T06:27:34.446Z,51.00
2023-03-05T06:28:34.478Z,54.00
2023-03-05T06:29:34.463Z,63.00
2023-03-05T06:30:34.495Z,61.00
2023-03-05T06:31:36.908Z,62.00
2023-03-05T06:32:34.471Z,65.00
2023-03-05T06:33:34.417Z,77.00
2023-03-05T06:34:34.472Z,74.00
2023-03-05T06:35:34.377Z,79.00
2023-03-05T06:36:34.423Z,89.00
2023-03-05T06:37:34.353Z,96.00
2023-03-05T06:38:34.338Z,94.00
2023-03-05T06:39:34.320Z,98.00
2023-03-05T06:40:34.331Z,109.00
2023-03-05T06:41:34.340Z,111.00
2023-03-05T06:42:34.293Z,122.00
2023-03-05T06:43:34.295Z,135.00
2023-03-05T06:44:34.358Z,146.00
2023-03-05T06:45:34.273Z,158.00
2023-03-05T06:46:34.438Z,174.00
2023-03-05T06:47:34.251Z,176.00
2023-03-05T06:48:34.237Z,183.00
2023-03-05T06:49:34.260Z,198.00
2023-03-05T06:50:34.245Z,201.00
2023-03-05T06:51:34.207Z,205.00
2023-03-05T06:52:34.212Z,203.00
2023-03-05T06:53:34.221Z,205.00
2023-03-05T06:54:34.226Z,208.00
2023-03-05T06:55:34.204Z,208.00
2023-03-05T06:56:34.182Z,205.00
2023-03-05T06:57:34.212Z,210.00
2023-03-05T06:58:34.155Z,218.00
2023-03-05T06:59:34.129Z,226.00
2023-03-05T07:00:34.159Z,220.00
2023-03-05T07:01:34.210Z,218.00
2023-03-05T07:02:34.251Z,229.00
2023-03-05T07:03:34.124Z,229.00
2023-03-05T07:04:34.213Z,227.00
2023-03-05T07:05:34.367Z,233.00
2023-03-05T07:06:34.149Z,244.00
2023-03-05T07:07:34.225Z,250.00
2023-03-05T07:08:34.065Z,247.00
2023-03-05T07:09:34.058Z,256.00
2023-03-05T07:10:34.085Z,256.00
2023-03-05T07:11:34.668Z,253.00
2023-03-05T07:12:34.076Z,260.00
2023-03-05T07:13:33.981Z,261.00
2023-03-05T07:14:34.105Z,269.00
2023-03-05T07:15:34.013Z,272.00
2023-03-05T07:16:34.083Z,256.00
2023-03-05T07:17:34.011Z,262.00
2023-03-05T07:18:33.970Z,266.00
2023-03-05T07:19:33.935Z,262.00
2023-03-05T07:20:33.960Z,259.00
2023-03-05T07:21:34.006Z,258.00
2023-03-05T07:22:33.945Z,268.00
2023-03-05T07:23:33.889Z,272.00
2023-03-05T07:24:33.923Z,277.00
2023-03-05T07:25:33.890Z,281.00
2023-03-05T07:26:33.937Z,281.00
2023-03-05T07:27:33.837Z,296.00
2023-03-05T07:28:33.853Z,304.00
2023-03-05T07:29:33.837Z,299.00
2023-03-05T07:30:33.945Z,290.00
2023-03-05T07:31:33.812Z,301.00
2023-03-05T07:32:33.871Z,303.00
2023-03-05T07:33:33.800Z,303.00
2023-03-05T07:34:33.812Z,306.00
2023-03-05T07:35:33.794Z,305.00
2023-03-05T07:36:33.798Z,316.00
2023-03-05T07:37:34.554Z,331.00
2023-03-05T07:38:33.751Z,319.00
2023-03-05T07:39:33.747Z,324.00
2023-03-05T07:40:33.765Z,320.00
2023-03-05T07:41:33.891Z,331.00
2023-03-05T07:42:33.771Z,332.00
2023-03-05T07:43:33.695Z,339.00
2023-03-05T07:44:33.720Z,339.00
2023-03-05T07:45:33.684Z,341.00
2023-03-05T07:46:33.772Z,338.00
2023-03-05T07:47:33.726Z,337.00
2023-03-05T07:48:33.701Z,334.00
2023-03-05T07:49:33.641Z,335.00
2023-03-05T07:50:33.646Z,336.00
2023-03-05T07:51:33.618Z,339.00
2023-03-05T07:52:33.657Z,341.00
2023-03-05T07:53:33.616Z,343.00
2023-03-05T07:54:33.623Z,350.00
2023-03-05T07:55:33.595Z,344.00
2023-03-05T07:56:33.591Z,343.00
2023-03-05T07:57:33.568Z,352.00
2023-03-05T07:58:33.549Z,345.00
2023-03-05T07:59:33.573Z,340.00
2023-03-05T08:00:34.213Z,353.00
2023-03-05T08:01:33.567Z,357.00
2023-03-05T08:02:33.591Z,360.00
2023-03-05T08:03:33.495Z,365.00
2023-03-05T08:04:33.553Z,373.00
2023-03-05T08:05:33.521Z,390.00
2023-03-05T08:06:33.492Z,399.00
2023-03-05T08:07:33.522Z,393.00
2023-03-05T08:08:33.530Z,385.00
2023-03-05T08:09:33.461Z,370.00
2023-03-05T08:10:33.482Z,390.00
2023-03-05T08:11:33.497Z,407.00
2023-03-05T08:12:33.473Z,410.00
2023-03-05T08:13:33.472Z,416.00
2023-03-05T08:14:33.403Z,422.00
2023-03-05T08:15:33.542Z,429.00
2023-03-05T08:16:33.503Z,420.00
2023-03-05T08:17:33.410Z,428.00
2023-03-05T08:18:33.458Z,433.00
2023-03-05T08:19:33.405Z,428.00
2023-03-05T08:20:33.323Z,426.00
2023-03-05T08:21:33.421Z,428.00
2023-03-05T08:22:33.361Z,431.00
2023-03-05T08:23:33.325Z,437.00
2023-03-05T08:24:33.288Z,448.00
2023-03-05T08:25:33.273Z,458.00
2023-03-05T08:26:33.373Z,447.00
2023-03-05T08:27:33.268Z,437.00
2023-03-05T08:28:34.423Z,433.00
2023-03-05T08:29:33.269Z,433.00
2023-03-05T08:30:33.298Z,432.00
2023-03-05T08:31:33.326Z,441.00
2023-03-05T08:32:33.273Z,452.00
2023-03-05T08:33:35.296Z,467.00
2023-03-05T08:34:33.177Z,472.00
2023-03-05T08:35:33.336Z,494.00
2023-03-05T08:36:33.164Z,502.00
2023-03-05T08:37:33.276Z,521.00
2023-03-05T08:38:33.164Z,533.00
2023-03-05T08:39:33.181Z,552.00
2023-03-05T08:40:33.137Z,570.00
2023-03-05T08:41:33.132Z,591.00
2023-03-05T08:42:33.154Z,597.00
2023-03-05T08:43:33.140Z,604.00
2023-03-05T08:44:33.110Z,608.00
2023-03-05T08:45:33.075Z,618.00
2023-03-05T08:46:33.194Z,629.00
2023-03-05T08:47:33.090Z,634.00
2023-03-05T08:48:33.111Z,626.00
2023-03-05T08:49:33.099Z,634.00
2023-03-05T08:50:33.033Z,646.00
2023-03-05T08:51:33.057Z,641.00
2023-03-05T08:52:33.001Z,636.00
2023-03-05T08:53:33.012Z,617.00
2023-03-05T08:54:33.029Z,603.00
2023-03-05T08:55:33.013Z,603.00
2023-03-05T08:56:33.146Z,607.00
2023-03-05T08:57:32.949Z,614.00
2023-03-05T08:58:32.970Z,635.00
2023-03-05T08:59:32.972Z,639.00
2023-03-05T09:00:32.970Z,677.00
2023-03-05T09:01:33.020Z,721.00
2023-03-05T09:02:33.028Z,732.00
2023-03-05T09:03:32.881Z,764.00
2023-03-05T09:04:32.907Z,775.00
2023-03-05T09:05:32.993Z,758.00
2023-03-05T09:06:32.950Z,748.00
2023-03-05T09:07:32.927Z,749.00
2023-03-05T09:08:32.865Z,741.00
2023-03-05T09:09:33.571Z,740.00
2023-03-05T09:10:32.860Z,762.00
2023-03-05T09:11:32.830Z,791.00
2023-03-05T09:12:32.870Z,805.00
2023-03-05T09:13:33.557Z,789.00
2023-03-05T09:14:32.789Z,787.00
2023-03-05T09:15:32.774Z,803.00
2023-03-05T09:16:32.790Z,821.00
2023-03-05T09:17:32.802Z,850.00
2023-03-05T09:18:32.796Z,842.00
2023-03-05T09:19:32.744Z,830.00
2023-03-05T09:20:32.736Z,798.00
2023-03-05T09:21:32.778Z,771.00
2023-03-05T09:22:32.724Z,757.00
2023-03-05T09:23:32.712Z,764.00
2023-03-05T09:24:32.716Z,744.00
2023-03-05T09:25:32.718Z,744.00
2023-03-05T09:26:32.680Z,728.00
2023-03-05T09:27:32.682Z,729.00
2023-03-05T09:28:32.694Z,749.00
2023-03-05T09:29:32.681Z,759.00
2023-03-05T09:30:32.669Z,787.00
2023-03-05T09:31:32.690Z,801.00
2023-03-05T09:32:32.721Z,839.00
2023-03-05T09:33:32.651Z,817.00
2023-03-05T09:34:32.579Z,798.00
2023-03-05T09:35:32.610Z,766.00
2023-03-05T09:36:32.581Z,722.00
2023-03-05T09:37:32.582Z,680.00
2023-03-05T09:38:32.585Z,656.00
2023-03-05T09:39:32.544Z,690.00
2023-03-05T09:40:32.517Z,733.00
2023-03-05T09:41:32.606Z,748.00
2023-03-05T09:42:32.536Z,753.00
2023-03-05T09:43:32.513Z,783.00
2023-03-05T09:44:32.516Z,857.00
2023-03-05T09:45:32.497Z,933.00
2023-03-05T09:46:32.472Z,953.00
2023-03-05T09:47:32.491Z,984.00
2023-03-05T09:48:32.470Z,1005.00
2023-03-05T09:49:32.500Z,1014.00
2023-03-05T09:50:32.459Z,1011.00
2023-03-05T09:51:32.429Z,982.00
2023-03-05T09:52:32.424Z,978.00
2023-03-05T09:53:32.442Z,924.00
2023-03-05T09:54:32.433Z,903.00
2023-03-05T09:55:32.431Z,958.00
2023-03-05T09:56:32.366Z,1007.00
2023-03-05T09:57:32.373Z,1036.00
2023-03-05T09:58:32.408Z,1078.00
2023-03-05T09:59:32.476Z,1114.00
2023-03-05T10:00:32.459Z,1160.00
2023-03-05T10:01:32.393Z,1206.00
2023-03-05T10:02:32.332Z,1220.00
2023-03-05T10:03:32.386Z,1269.00
2023-03-05T10:04:32.292Z,1318.00
2023-03-05T10:05:32.339Z,1332.00
2023-03-05T10:06:32.317Z,1361.00
2023-03-05T10:07:32.321Z,1410.00
2023-03-05T10:08:32.248Z,1491.00
2023-03-05T10:09:32.307Z,1505.00
2023-03-05T10:10:32.237Z,1483.00
2023-03-05T10:11:32.244Z,1433.00
2023-03-05T10:12:32.247Z,1366.00
2023-03-05T10:13:32.259Z,1370.00
2023-03-05T10:14:32.343Z,1412.00
2023-03-05T10:15:32.303Z,1518.00
2023-03-05T10:16:32.291Z,1524.00
2023-03-05T10:17:32.199Z,1465.00
2023-03-05T10:18:32.163Z,1389.00
2023-03-05T10:19:32.178Z,1350.00
2023-03-05T10:20:32.154Z,1371.00
2023-03-05T10:21:32.115Z,1399.00
2023-03-05T10:22:32.126Z,1431.00
2023-03-05T10:23:32.158Z,1446.00
2023-03-05T10:24:32.155Z,1419.00
2023-03-05T10:25:32.203Z,1408.00
2023-03-05T10:26:32.087Z,1390.00
2023-03-05T10:27:32.128Z,1390.00
2023-03-05T10:28:32.126Z,1396.00
2023-03-05T10:29:32.151Z,1422.00
2023-03-05T10:30:32.075Z,1438.00
2023-03-05T10:31:32.084Z,1367.00
2023-03-05T10:32:32.130Z,1330.00
2023-03-05T10:33:33.580Z,1328.00
2023-03-05T10:34:32.008Z,1315.00
2023-03-05T10:35:32.011Z,1229.00
2023-03-05T10:36:31.986Z,1174.00
2023-03-05T10:37:31.983Z,1189.00
2023-03-05T10:38:31.958Z,1185.00
2023-03-05T10:39:31.982Z,1148.00
2023-03-05T10:40:31.950Z,1109.00
2023-03-05T10:41:31.950Z,1130.00
2023-03-05T10:42:31.901Z,1162.00
2023-03-05T10:43:31.931Z,1192.00
2023-03-05T10:44:31.907Z,1128.00
2023-03-05T10:45:31.913Z,1146.00
2023-03-05T10:46:31.870Z,1144.00
2023-03-05T10:47:31.894Z,1153.00
2023-03-05T10:48:31.934Z,1228.00
2023-03-05T10:49:31.879Z,1274.00
2023-03-05T10:50:31.938Z,1238.00
2023-03-05T10:51:31.850Z,1178.00
2023-03-05T10:52:31.848Z,1108.00
2023-03-05T10:53:31.834Z,1013.00
2023-03-05T10:54:31.832Z,940.00
2023-03-05T10:55:31.792Z,971.00
2023-03-05T10:56:31.932Z,1123.00
2023-03-05T10:57:31.800Z,1152.00
2023-03-05T10:58:31.800Z,1139.00
2023-03-05T10:59:31.778Z,1092.00
2023-03-05T11:00:31.815Z,1066.00
2023-03-05T11:01:31.810Z,1114.00
2023-03-05T11:02:31.848Z,1113.00
2023-03-05T11:03:31.769Z,1109.00
2023-03-05T11:04:31.736Z,1129.00
2023-03-05T11:05:31.700Z,1208.00
2023-03-05T11:06:31.717Z,1196.00
2023-03-05T11:07:31.696Z,1198.00
2023-03-05T11:08:31.709Z,1200.00
2023-03-05T11:09:31.784Z,1220.00
2023-03-05T11:10:31.723Z,1239.00
2023-03-05T11:11:31.639Z,1371.00
2023-03-05T11:12:31.628Z,1393.00
2023-03-05T11:13:31.657Z,1401.00
2023-03-05T11:14:31.634Z,1426.00
2023-03-05T11:15:31.594Z,1397.00
2023-03-05T11:16:31.656Z,1352.00
2023-03-05T11:17:31.626Z,1364.00
2023-03-05T11:18:31.640Z,1416.00
2023-03-05T11:19:31.630Z,1413.00
2023-03-05T11:20:31.662Z,1459.00
2023-03-05T11:21:31.625Z,1436.00
2023-03-05T11:22:31.592Z,1464.00
2023-03-05T11:23:31.546Z,1322.00
2023-03-05T11:24:31.684Z,1207.00
2023-03-05T11:25:31.572Z,1187.00
2023-03-05T11:26:31.507Z,1248.00
2023-03-05T11:27:31.594Z,1240.00
2023-03-05T11:28:33.588Z,1261.00
2023-03-05T11:29:31.479Z,1220.00
2023-03-05T11:30:31.658Z,1199.00
2023-03-05T11:31:31.466Z,1196.00
2023-03-05T11:32:31.570Z,1238.00
2023-03-05T11:33:31.431Z,1355.00
2023-03-05T11:34:31.453Z,1412.00
2023-03-05T11:35:31.405Z,1466.00
2023-03-05T11:36:31.543Z,1543.00
2023-03-05T11:37:31.494Z,1605.00
2023-03-05T11:38:32.462Z,1670.00
2023-03-05T11:39:31.377Z,1675.00
2023-03-05T11:40:31.338Z,1690.00
2023-03-05T11:41:31.413Z,1679.00
2023-03-05T11:42:31.322Z,1629.00
2023-03-05T11:43:31.336Z,1578.00
2023-03-05T11:44:31.338Z,1551.00
2023-03-05T11:45:31.303Z,1617.00
2023-03-05T11:46:31.353Z,1655.00
2023-03-05T11:47:31.288Z,1779.00
2023-03-05T11:48:31.282Z,1862.00
2023-03-05T11:49:33.445Z,1982.00
2023-03-05T11:50:31.258Z,2133.00
2023-03-05T11:51:31.295Z,2216.00
2023-03-05T11:52:31.268Z,2211.00
2023-03-05T11:53:31.224Z,2191.00
2023-03-05T11:54:31.253Z,2226.00
2023-03-05T11:55:31.235Z,2223.00
2023-03-05T11:56:31.208Z,2300.00
2023-03-05T11:57:31.184Z,2388.00
2023-03-05T11:58:31.198Z,2467.00
2023-03-05T11:59:31.208Z,2447.00
2023-03-05T12:00:31.326Z,2503.00
2023-03-05T12:01:31.183Z,2447.00
2023-03-05T12:02:31.189Z,2775.00
2023-03-05T12:03:31.226Z,2159.00
2023-03-05T12:04:31.111Z,3053.00
2023-03-05T12:05:31.288Z,2399.00
2023-03-05T12:06:31.121Z,2319.00
2023-03-05T12:07:31.127Z,2243.00
2023-03-05T12:08:31.113Z,2205.00
2023-03-05T12:09:31.101Z,2174.00
2023-03-05T12:10:31.119Z,2165.00
2023-03-05T12:11:31.098Z,2120.00
2023-03-05T12:12:31.038Z,2040.00
2023-03-05T12:13:31.038Z,2004.00
2023-03-05T12:14:31.047Z,1983.00
2023-03-05T12:15:31.088Z,2001.00
2023-03-05T12:16:31.093Z,2022.00
2023-03-05T12:17:31.025Z,2058.00
2023-03-05T12:18:30.970Z,2091.00
2023-03-05T12:19:31.009Z,2096.00
2023-03-05T12:20:31.148Z,2054.00
2023-03-05T12:21:31.017Z,2010.00
2023-03-05T12:22:30.948Z,1961.00
2023-03-05T12:23:30.929Z,1936.00
2023-03-05T12:24:30.961Z,1881.00
2023-03-05T12:25:30.941Z,1821.00
2023-03-05T12:26:30.984Z,1753.00
2023-03-05T12:27:30.948Z,1696.00
2023-03-05T12:28:31.182Z,1629.00
2023-03-05T12:29:30.961Z,1601.00
2023-03-05T12:30:30.893Z,1556.00
2023-03-05T12:31:31.044Z,1569.00
2023-03-05T12:32:31.003Z,1504.00
2023-03-05T12:33:30.890Z,1422.00
2023-03-05T12:34:30.885Z,1343.00
2023-03-05T12:35:30.866Z,1273.00
2023-03-05T12:36:30.835Z,1236.00
2023-03-05T12:37:30.923Z,1207.00
2023-03-05T12:38:30.806Z,1167.00
2023-03-05T12:39:30.836Z,1131.00
2023-03-05T12:40:31.009Z,1088.00
2023-03-05T12:41:32.973Z,1067.00
2023-03-05T12:42:30.755Z,1055.00
2023-03-05T12:43:30.731Z,1045.00
2023-03-05T12:44:30.786Z,1024.00
2023-03-05T12:45:30.729Z,1006.00
2023-03-05T12:46:30.824Z,983.00